Airport View

Enter AWOS ICAO identifier for current METAR.

ex. KFNL

KSJN 202254Z AUTO 30007KT 10SM CLR 26/M11 A3003 RMK AO2 SLP094 T02611106

20 Oct 2020 23:04

Frequency: 134.225

Phone: 928-337-3061

Other Area AWOS: KJTC - KSOW - KTYL - KGUP

TAF KGUP 201720Z 2018/2118 28003KT P6SM SKC FM201900 26010KT P6SM SKC FM210100 VRB06KT P6SM SKC